Terminal Aerodrome Forecast
Issued by NWS Duluth, MN

Home | Current Version | Previous Version | Text Only | Print | Product List | Glossary On
Versions: 1 2 3 4 5 6 7 8 9 10 11 12 13 14 15 16 17 18 19 20 21 22 23 24 25 26 27 28 29 30 31 32 33 34
000
FTUS43 KDLH 190500
TAFINL
TAF
KINL 190520Z 1906/2006 16008KT P6SM BKN012 OVC040 WS020/20040KT
     FM190800 18012KT P6SM VCSH BKN015 BKN060 WS020/22045KT
     FM191200 20012G20KT P6SM VCSH SCT015 BKN040
     FM191500 20014G24KT P6SM -SHRA OVC025
     FM192000 21010G20KT P6SM VCSH BKN030
     FM200000 22005KT P6SM -SHRA BKN015=

USA.gov is the U.S. government's official web portal to all federal, state and local government web resources and services.